createdAt,value
2023-04-09T00:01:06.624Z,11.48
2023-04-09T00:04:09.648Z,12.23
2023-04-09T00:07:12.625Z,13.07
2023-04-09T00:10:16.883Z,12.55
2023-04-09T00:13:31.937Z,12.68
2023-04-09T00:16:41.922Z,12.10
2023-04-09T00:19:44.849Z,12.37
2023-04-09T00:22:48.615Z,12.33
2023-04-09T00:25:51.333Z,12.30
2023-04-09T00:28:55.666Z,12.23
2023-04-09T00:31:58.729Z,11.27
2023-04-09T00:35:03.033Z,12.10
2023-04-09T00:38:05.951Z,12.40
2023-04-09T00:41:08.802Z,11.77
2023-04-09T00:44:13.213Z,13.20
2023-04-09T00:47:16.149Z,11.13
2023-04-09T00:50:19.416Z,11.20
2023-04-09T00:53:22.547Z,10.70
2023-04-09T00:56:25.673Z,11.70
2023-04-09T00:59:30.364Z,11.23
2023-04-09T01:02:34.555Z,12.43
2023-04-09T01:05:45.342Z,12.00
2023-04-09T01:08:58.379Z,11.27
2023-04-09T01:12:16.320Z,10.30
2023-04-09T01:15:26.937Z,11.40
2023-04-09T01:18:35.734Z,12.45
2023-04-09T01:21:40.276Z,11.93
2023-04-09T01:24:53.898Z,11.43
2023-04-09T01:28:17.451Z,11.02
2023-04-09T01:31:23.351Z,11.52
2023-04-09T01:34:27.503Z,11.85
2023-04-09T01:37:31.073Z,12.43
2023-04-09T01:40:35.558Z,12.13
2023-04-09T01:43:43.789Z,11.10
2023-04-09T01:46:48.135Z,11.40
2023-04-09T01:49:53.603Z,11.25
2023-04-09T01:52:56.436Z,12.17
2023-04-09T01:56:01.710Z,11.50
2023-04-09T01:59:05.909Z,12.35
2023-04-09T02:02:13.738Z,11.43
2023-04-09T02:05:20.549Z,12.52
2023-04-09T02:08:26.458Z,11.17
2023-04-09T02:11:30.727Z,11.33
2023-04-09T02:14:36.285Z,12.18
2023-04-09T02:17:39.440Z,11.57
2023-04-09T02:20:42.590Z,12.00
2023-04-09T02:23:45.600Z,12.60
2023-04-09T02:26:50.251Z,12.00
2023-04-09T02:29:54.786Z,12.10
2023-04-09T02:32:57.603Z,12.15
2023-04-09T02:36:01.027Z,12.98
2023-04-09T02:39:04.094Z,12.53
2023-04-09T02:42:07.957Z,13.07
2023-04-09T02:45:12.681Z,12.73
2023-04-09T02:48:15.509Z,12.88
2023-04-09T02:51:18.361Z,13.18
2023-04-09T02:54:21.473Z,13.33
2023-04-09T02:57:24.322Z,13.20
2023-04-09T03:00:28.844Z,12.77
2023-04-09T03:03:33.059Z,13.55
2023-04-09T03:06:36.192Z,11.73
2023-04-09T03:09:38.885Z,11.80
2023-04-09T03:12:44.555Z,11.67
2023-04-09T03:15:52.908Z,10.68
2023-04-09T03:18:55.920Z,10.68
2023-04-09T03:22:06.597Z,11.23
2023-04-09T03:25:10.332Z,11.77
2023-04-09T03:28:13.209Z,9.90
2023-04-09T03:31:17.374Z,11.15
2023-04-09T03:34:20.203Z,11.27
2023-04-09T03:37:23.111Z,10.48
2023-04-09T03:40:26.028Z,9.93
2023-04-09T03:43:28.885Z,10.60
2023-04-09T03:46:33.339Z,10.10
2023-04-09T03:49:36.662Z,10.70
2023-04-09T03:52:39.925Z,9.38
2023-04-09T03:55:43.104Z,9.67
2023-04-09T03:58:45.979Z,9.07
2023-04-09T04:01:51.268Z,9.05
2023-04-09T04:04:54.031Z,8.82
2023-04-09T04:07:57.272Z,8.90
2023-04-09T04:11:04.835Z,8.80
2023-04-09T04:14:07.625Z,8.07
2023-04-09T04:17:12.216Z,8.80
2023-04-09T04:20:15.341Z,9.18
2023-04-09T04:23:18.037Z,8.77
2023-04-09T04:26:21.010Z,9.83
2023-04-09T04:29:23.750Z,9.33
2023-04-09T04:32:28.348Z,10.13
2023-04-09T04:35:31.153Z,10.20
2023-04-09T04:38:34.552Z,9.10
2023-04-09T04:41:37.293Z,10.43
2023-04-09T04:44:40.124Z,9.83
2023-04-09T04:47:44.410Z,9.60
2023-04-09T04:50:47.462Z,9.57
2023-04-09T04:53:50.276Z,9.63
2023-04-09T04:56:53.289Z,10.63
2023-04-09T04:59:56.318Z,10.20
2023-04-09T05:03:00.873Z,9.73
2023-04-09T05:06:03.691Z,11.27
2023-04-09T05:09:06.448Z,9.10
2023-04-09T05:12:09.601Z,10.50
2023-04-09T05:15:12.514Z,11.17
2023-04-09T05:18:16.759Z,12.38
2023-04-09T05:21:19.582Z,11.95
2023-04-09T05:24:22.319Z,11.35
2023-04-09T05:27:26.027Z,11.33
2023-04-09T05:30:28.797Z,12.03
2023-04-09T05:33:37.865Z,10.85
2023-04-09T05:36:41.470Z,11.13
2023-04-09T05:39:44.227Z,10.98
2023-04-09T05:42:48.192Z,11.73
2023-04-09T05:45:51.223Z,11.40
2023-04-09T05:48:55.687Z,11.10
2023-04-09T05:51:58.712Z,12.02
2023-04-09T05:55:01.527Z,11.35
2023-04-09T05:58:04.303Z,11.70
2023-04-09T06:01:07.412Z,11.43
2023-04-09T06:04:11.998Z,11.23
2023-04-09T06:07:15.263Z,11.85
2023-04-09T06:10:18.377Z,11.75
2023-04-09T06:13:21.275Z,12.63
2023-04-09T06:16:24.135Z,13.00
2023-04-09T06:19:28.613Z,12.13
2023-04-09T06:22:31.781Z,13.35
2023-04-09T06:25:35.329Z,11.95
2023-04-09T06:28:38.574Z,11.70
2023-04-09T06:31:41.974Z,13.00
2023-04-09T06:34:46.168Z,13.73
2023-04-09T06:37:49.023Z,12.77
2023-04-09T06:40:52.092Z,12.88
2023-04-09T06:43:55.610Z,13.27
2023-04-09T06:46:58.346Z,13.60
2023-04-09T06:50:03.041Z,13.57
2023-04-09T06:53:07.675Z,12.57
2023-04-09T06:56:10.402Z,13.07
2023-04-09T06:59:13.273Z,12.90
2023-04-09T07:02:16.160Z,13.13
2023-04-09T07:05:20.868Z,13.10
2023-04-09T07:08:24.011Z,12.88
2023-04-09T07:11:26.786Z,14.98
2023-04-09T07:14:30.937Z,11.83
2023-04-09T07:17:34.934Z,12.60
2023-04-09T07:20:39.175Z,12.82
2023-04-09T07:23:42.511Z,13.88
2023-04-09T07:26:45.452Z,13.40
2023-04-09T07:29:48.281Z,14.47
2023-04-09T07:32:51.612Z,12.43
2023-04-09T07:35:56.153Z,13.93
2023-04-09T07:39:00.652Z,13.50
2023-04-09T07:42:04.448Z,13.43
2023-04-09T07:45:08.432Z,13.37
2023-04-09T07:48:12.996Z,12.53
2023-04-09T07:51:17.522Z,11.75
2023-04-09T07:54:21.228Z,12.48
2023-04-09T07:57:23.916Z,13.38
2023-04-09T08:00:27.295Z,13.13
2023-04-09T08:03:30.215Z,12.43
2023-04-09T08:06:34.561Z,13.68
2023-04-09T08:09:37.318Z,13.23
2023-04-09T08:12:40.331Z,13.82
2023-04-09T08:15:43.102Z,13.17
2023-04-09T08:18:46.200Z,13.00
2023-04-09T08:21:50.715Z,13.23
2023-04-09T08:24:54.326Z,12.10
2023-04-09T08:27:58.264Z,11.75
2023-04-09T08:31:04.529Z,14.07
2023-04-09T08:34:07.634Z,12.73
2023-04-09T08:37:11.873Z,12.38
2023-04-09T08:40:15.499Z,12.63
2023-04-09T08:43:23.660Z,11.90
2023-04-09T08:46:28.518Z,14.30
2023-04-09T08:49:31.223Z,14.33
2023-04-09T08:52:36.443Z,14.48
2023-04-09T08:55:39.518Z,12.18
2023-04-09T08:58:44.709Z,14.30
2023-04-09T09:01:52.834Z,14.93
2023-04-09T09:05:00.810Z,14.00
2023-04-09T09:08:05.481Z,13.90
2023-04-09T09:11:08.330Z,13.38
2023-04-09T09:14:12.541Z,12.88
2023-04-09T09:17:15.531Z,13.63
2023-04-09T09:20:22.862Z,12.80
2023-04-09T09:23:37.876Z,14.05
2023-04-09T09:26:41.023Z,14.95
2023-04-09T09:29:44.926Z,13.52
2023-04-09T09:32:47.810Z,14.47
2023-04-09T09:35:51.592Z,11.80
2023-04-09T09:38:57.537Z,14.52
2023-04-09T09:42:10.095Z,14.30
2023-04-09T09:45:19.472Z,12.98
2023-04-09T09:48:22.263Z,11.50
2023-04-09T09:51:31.050Z,12.10
2023-04-09T09:54:41.653Z,12.68
2023-04-09T09:57:47.313Z,12.63
2023-04-09T10:00:52.770Z,14.00
2023-04-09T10:03:59.634Z,13.30
2023-04-09T10:07:05.786Z,12.40
2023-04-09T10:10:11.029Z,13.40
2023-04-09T10:13:21.870Z,11.18
2023-04-09T10:16:25.978Z,12.85
2023-04-09T10:19:29.063Z,14.10
2023-04-09T10:22:34.792Z,12.27
2023-04-09T10:25:38.938Z,11.43
2023-04-09T10:28:42.056Z,12.20
2023-04-09T10:31:55.203Z,11.63
2023-04-09T10:34:59.304Z,12.90
2023-04-09T10:38:02.301Z,13.50
2023-04-09T10:41:14.048Z,13.65
2023-04-09T10:44:24.520Z,12.52
2023-04-09T10:47:34.191Z,12.10
2023-04-09T10:50:38.068Z,13.30
2023-04-09T10:53:40.915Z,11.93
2023-04-09T10:57:13.741Z,12.90
2023-04-09T11:00:18.676Z,11.90
2023-04-09T11:03:23.804Z,13.20
2023-04-09T11:06:27.744Z,11.32
2023-04-09T11:09:30.806Z,11.10
2023-04-09T11:12:35.141Z,11.38
2023-04-09T11:15:38.309Z,12.18
2023-04-09T11:18:42.107Z,12.80
2023-04-09T11:21:46.209Z,12.05
2023-04-09T11:24:50.775Z,12.73
2023-04-09T11:27:55.705Z,10.73
2023-04-09T11:30:58.432Z,11.07
2023-04-09T11:34:01.134Z,13.07
2023-04-09T11:37:09.107Z,12.23
2023-04-09T11:40:22.156Z,12.27
2023-04-09T11:43:26.601Z,12.73
2023-04-09T11:46:29.735Z,13.43
2023-04-09T11:49:32.558Z,12.33
2023-04-09T11:52:35.875Z,12.48
2023-04-09T11:55:38.583Z,11.90
2023-04-09T11:58:47.065Z,12.63
2023-04-09T12:01:51.204Z,12.50
2023-04-09T12:04:54.208Z,11.23
2023-04-09T12:07:59.832Z,11.93
2023-04-09T12:11:10.417Z,11.38
2023-04-09T12:14:16.742Z,12.15
2023-04-09T12:17:22.009Z,10.85
2023-04-09T12:20:32.387Z,11.27
2023-04-09T12:23:35.337Z,11.70
2023-04-09T12:26:38.041Z,11.35
2023-04-09T12:29:42.205Z,11.35
2023-04-09T12:32:45.939Z,10.90
2023-04-09T12:35:48.818Z,10.93
2023-04-09T12:38:51.952Z,10.82
2023-04-09T12:41:54.995Z,10.90
2023-04-09T12:44:59.245Z,11.05
2023-04-09T12:48:02.268Z,10.50
2023-04-09T12:51:05.959Z,11.57
2023-04-09T12:54:08.827Z,11.35
2023-04-09T12:57:11.537Z,10.18
2023-04-09T13:00:17.070Z,9.68
2023-04-09T13:03:19.889Z,10.63
2023-04-09T13:06:23.258Z,10.73
2023-04-09T13:09:26.425Z,9.70
2023-04-09T13:12:29.164Z,9.93
2023-04-09T13:15:33.313Z,9.20
2023-04-09T13:18:36.304Z,9.63
2023-04-09T13:21:39.314Z,10.53
2023-04-09T13:24:43.282Z,9.95
2023-04-09T13:27:46.067Z,10.93
2023-04-09T13:30:51.365Z,9.80
2023-04-09T13:33:54.326Z,10.68
2023-04-09T13:36:57.219Z,9.70
2023-04-09T13:40:00.143Z,10.18
2023-04-09T13:43:02.851Z,9.43
2023-04-09T13:46:07.564Z,9.75
2023-04-09T13:49:10.298Z,9.77
2023-04-09T13:52:13.092Z,8.33
2023-04-09T13:55:15.819Z,9.50
2023-04-09T13:58:18.628Z,9.88
2023-04-09T14:01:22.975Z,9.10
2023-04-09T14:04:25.691Z,9.50
2023-04-09T14:07:28.680Z,9.00
2023-04-09T14:10:31.396Z,9.68
2023-04-09T14:13:34.286Z,9.70
2023-04-09T14:16:38.913Z,8.75
2023-04-09T14:19:41.639Z,8.63
2023-04-09T14:22:49.123Z,9.57
2023-04-09T14:25:51.786Z,9.10
2023-04-09T14:28:55.025Z,8.57
2023-04-09T14:31:59.965Z,8.10
2023-04-09T14:35:03.008Z,7.85
2023-04-09T14:38:05.746Z,10.57
2023-04-09T14:41:08.678Z,7.93
2023-04-09T14:44:11.464Z,7.90
2023-04-09T14:47:16.066Z,7.53
2023-04-09T14:50:19.070Z,8.05
2023-04-09T14:53:21.844Z,8.20
2023-04-09T14:56:25.125Z,7.40
2023-04-09T14:59:27.813Z,8.35
2023-04-09T15:02:32.090Z,7.75
2023-04-09T15:05:34.899Z,6.90
2023-04-09T15:08:37.590Z,8.87
2023-04-09T15:11:41.267Z,9.00
2023-04-09T15:14:43.935Z,8.75
2023-04-09T15:17:48.029Z,7.83
2023-04-09T15:20:51.147Z,8.35
2023-04-09T15:23:54.402Z,7.05
2023-04-09T15:26:57.811Z,8.37
2023-04-09T15:30:00.689Z,8.00
2023-04-09T15:33:06.207Z,9.30
2023-04-09T15:36:09.835Z,8.43
2023-04-09T15:42:33.137Z,7.77
2023-04-09T15:45:35.850Z,9.55
2023-04-09T15:48:40.121Z,9.35
2023-04-09T15:51:42.990Z,8.98
2023-04-09T15:54:45.786Z,9.10
2023-04-09T15:57:48.470Z,8.73
2023-04-09T16:00:51.598Z,9.43
2023-04-09T16:03:56.358Z,9.63
2023-04-09T16:06:59.298Z,9.10
2023-04-09T16:10:02.310Z,9.43
2023-04-09T16:13:05.638Z,8.90
2023-04-09T16:16:08.813Z,8.77
2023-04-09T16:19:12.996Z,8.60
2023-04-09T16:22:15.733Z,8.50
2023-04-09T16:25:18.526Z,8.70
2023-04-09T16:28:22.364Z,9.03
2023-04-09T16:31:25.085Z,7.75
2023-04-09T16:34:31.540Z,7.88
2023-04-09T16:37:35.167Z,8.02
2023-04-09T16:40:38.030Z,9.15
2023-04-09T16:43:41.170Z,8.00
2023-04-09T16:46:44.109Z,7.30
2023-04-09T16:49:48.341Z,7.45
2023-04-09T16:52:51.417Z,7.07
2023-04-09T16:55:54.148Z,7.07
2023-04-09T16:58:56.989Z,6.67
2023-04-09T17:01:59.785Z,7.53
2023-04-09T17:05:04.572Z,6.95
2023-04-09T17:08:07.333Z,6.32
2023-04-09T17:11:10.232Z,6.82
2023-04-09T17:14:13.041Z,6.90
2023-04-09T17:17:16.139Z,6.60
2023-04-09T17:20:20.854Z,6.88
2023-04-09T17:23:23.861Z,6.50
2023-04-09T17:26:27.113Z,7.07
2023-04-09T17:29:29.839Z,7.30
2023-04-09T17:32:32.582Z,8.48
2023-04-09T17:35:36.721Z,8.20
2023-04-09T17:38:39.629Z,7.85
2023-04-09T17:41:43.719Z,8.10
2023-04-09T17:44:46.549Z,8.05
2023-04-09T17:47:51.144Z,7.75
2023-04-09T17:50:55.450Z,7.63
2023-04-09T17:53:58.191Z,7.57
2023-04-09T17:57:01.017Z,7.35
2023-04-09T18:00:05.051Z,7.40
2023-04-09T18:03:07.966Z,7.13
2023-04-09T18:06:12.397Z,6.97
2023-04-09T18:09:15.590Z,7.60
2023-04-09T18:12:18.316Z,7.25
2023-04-09T18:15:21.839Z,7.53
2023-04-09T18:18:24.775Z,7.40
2023-04-09T18:21:28.868Z,7.63
2023-04-09T18:24:33.566Z,7.55
2023-04-09T18:27:36.325Z,7.38
2023-04-09T18:30:39.766Z,7.90
2023-04-09T18:33:42.689Z,7.90
2023-04-09T18:36:47.304Z,8.27
2023-04-09T18:39:50.223Z,8.10
2023-04-09T18:42:53.439Z,8.35
2023-04-09T18:45:56.297Z,8.37
2023-04-09T18:48:59.772Z,8.77
2023-04-09T18:52:05.366Z,8.88
2023-04-09T18:55:09.524Z,8.98
2023-04-09T18:58:15.045Z,8.88
2023-04-09T19:01:19.806Z,9.67
2023-04-09T19:04:22.831Z,9.60
2023-04-09T19:07:27.315Z,9.60
2023-04-09T19:10:30.686Z,8.88
2023-04-09T19:13:33.498Z,9.63
2023-04-09T19:16:36.398Z,11.70
2023-04-09T19:19:39.371Z,10.77
2023-04-09T19:22:47.784Z,10.57
2023-04-09T19:25:52.625Z,10.73
2023-04-09T19:28:55.769Z,10.93
2023-04-09T19:31:58.749Z,11.90
2023-04-09T19:35:01.822Z,12.07
2023-04-09T19:38:06.414Z,11.23
2023-04-09T19:41:09.338Z,12.93
2023-04-09T19:44:12.417Z,11.07
2023-04-09T19:47:16.805Z,10.77
2023-04-09T19:50:19.794Z,10.43
2023-04-09T19:53:23.902Z,10.77
2023-04-09T19:56:26.825Z,10.85
2023-04-09T19:59:29.801Z,10.70
2023-04-09T20:02:32.613Z,10.93
2023-04-09T20:05:35.857Z,10.57
2023-04-09T20:08:40.764Z,10.65
2023-04-09T20:11:43.823Z,10.45
2023-04-09T20:14:47.183Z,9.70
2023-04-09T20:17:50.944Z,9.57
2023-04-09T20:20:54.053Z,8.40
2023-04-09T20:23:58.095Z,9.13
2023-04-09T20:27:01.647Z,9.60
2023-04-09T20:30:04.980Z,10.02
2023-04-09T20:33:07.746Z,11.63
2023-04-09T20:36:16.240Z,10.67
2023-04-09T20:39:20.521Z,10.57
2023-04-09T20:42:23.243Z,11.15
2023-04-09T20:45:26.133Z,10.70
2023-04-09T20:48:31.339Z,11.10
2023-04-09T20:51:34.102Z,10.47
2023-04-09T20:54:39.346Z,10.52
2023-04-09T20:57:42.372Z,11.38
2023-04-09T21:00:45.224Z,11.15
2023-04-09T21:03:48.042Z,11.90
2023-04-09T21:06:50.980Z,10.77
2023-04-09T21:09:55.075Z,11.18
2023-04-09T21:12:57.782Z,10.60
2023-04-09T21:16:00.575Z,11.15
2023-04-09T21:19:06.955Z,10.90
2023-04-09T21:22:10.069Z,11.32
2023-04-09T21:25:15.497Z,10.45
2023-04-09T21:28:18.484Z,10.68
2023-04-09T21:31:22.070Z,10.93
2023-04-09T21:34:25.004Z,11.65
2023-04-09T21:37:28.976Z,12.02
2023-04-09T21:40:33.610Z,14.23
2023-04-09T21:43:38.238Z,15.70
2023-04-09T21:46:42.684Z,14.20
2023-04-09T21:49:46.378Z,13.57
2023-04-09T21:52:49.186Z,13.00
2023-04-09T21:55:53.405Z,11.65
2023-04-09T21:58:56.264Z,13.13
2023-04-09T22:01:59.180Z,12.10
2023-04-09T22:05:02.053Z,12.02
2023-04-09T22:08:04.869Z,13.15
2023-04-09T22:11:09.046Z,12.98
2023-04-09T22:14:11.939Z,12.23
2023-04-09T22:17:14.809Z,12.17
2023-04-09T22:20:17.586Z,11.80
2023-04-09T22:23:20.651Z,12.60
2023-04-09T22:26:24.966Z,11.80
2023-04-09T22:29:28.312Z,12.43
2023-04-09T22:32:33.435Z,12.00
2023-04-09T22:35:36.405Z,11.93
2023-04-09T22:38:39.268Z,12.48
2023-04-09T22:41:43.464Z,11.98
2023-04-09T22:44:46.383Z,12.38
2023-04-09T22:47:49.400Z,12.77
2023-04-09T22:50:52.157Z,12.27
2023-04-09T22:53:55.026Z,13.50
2023-04-09T22:56:59.119Z,13.63
2023-04-09T23:00:02.024Z,13.20
2023-04-09T23:03:05.096Z,12.47
2023-04-09T23:06:08.077Z,13.40
2023-04-09T23:09:11.037Z,12.50
2023-04-09T23:12:15.425Z,13.27
2023-04-09T23:15:18.306Z,12.43
2023-04-09T23:18:21.214Z,13.37
2023-04-09T23:21:23.942Z,13.60
2023-04-09T23:24:26.837Z,13.38
2023-04-09T23:27:31.081Z,13.57
2023-04-09T23:30:33.899Z,12.98
2023-04-09T23:33:36.887Z,12.93
2023-04-09T23:36:39.966Z,13.17
2023-04-09T23:39:43.214Z,12.88
2023-04-09T23:42:47.911Z,14.57
2023-04-09T23:45:50.845Z,13.10
2023-04-09T23:48:53.659Z,13.27
2023-04-09T23:51:56.329Z,13.07
2023-04-09T23:54:59.992Z,13.73
2023-04-09T23:58:04.070Z,13.32
